createdAt,value
2023-04-02T00:00:25.183Z,74.1908
2023-04-02T00:01:33.241Z,74.0873
2023-04-02T00:02:41.373Z,73.6611
2023-04-02T00:03:49.429Z,73.8394
2023-04-02T00:04:57.433Z,73.8565
2023-04-02T00:06:05.495Z,73.9218
2023-04-02T00:07:13.537Z,73.8473
2023-04-02T00:08:21.556Z,74.0259
2023-04-02T00:09:29.639Z,73.7422
2023-04-02T00:10:37.689Z,74.3674
2023-04-02T00:11:45.739Z,74.1110
2023-04-02T00:12:53.809Z,73.7328
2023-04-02T00:14:01.850Z,73.9254
2023-04-02T00:15:09.934Z,74.2950
2023-04-02T00:16:18.097Z,74.1656
2023-04-02T00:17:26.135Z,73.8222
2023-04-02T00:18:34.173Z,74.4697
2023-04-02T00:19:42.322Z,73.9652
2023-04-02T00:20:50.352Z,74.3296
2023-04-02T00:21:58.478Z,74.0800
2023-04-02T00:23:06.452Z,74.0541
2023-04-02T00:24:14.526Z,73.4987
2023-04-02T00:25:22.638Z,73.2953
2023-04-02T00:26:30.598Z,73.6648
2023-04-02T00:27:38.592Z,73.7467
2023-04-02T00:28:46.787Z,73.5617
2023-04-02T00:29:54.760Z,74.1049
2023-04-02T00:31:02.957Z,74.0739
2023-04-02T00:32:11.077Z,74.3726
2023-04-02T00:33:19.076Z,75.0359
2023-04-02T00:34:27.086Z,74.6399
2023-04-02T00:35:35.361Z,74.8857
2023-04-02T00:36:43.277Z,75.1676
2023-04-02T00:37:51.353Z,76.2743
2023-04-02T00:38:59.358Z,75.1654
2023-04-02T00:40:07.519Z,75.0348
2023-04-02T00:41:15.480Z,75.9301
2023-04-02T00:42:23.515Z,75.6862
2023-04-02T00:43:31.587Z,75.7832
2023-04-02T00:44:39.591Z,75.1435
2023-04-02T00:45:47.694Z,75.0244
2023-04-02T00:46:55.832Z,75.2670
2023-04-02T00:48:03.979Z,75.3777
2023-04-02T00:49:12.028Z,75.5498
2023-04-02T00:50:19.999Z,74.9683
2023-04-02T00:51:28.101Z,75.3099
2023-04-02T00:52:36.206Z,75.7533
2023-04-02T00:53:44.280Z,75.8392
2023-04-02T00:54:52.330Z,75.8298
2023-04-02T00:56:00.302Z,75.9303
2023-04-02T00:57:08.367Z,75.6157
2023-04-02T00:58:16.415Z,75.6307
2023-04-02T00:59:24.469Z,75.9972
2023-04-02T01:00:32.719Z,76.1553
2023-04-02T01:01:40.775Z,75.4832
2023-04-02T01:02:48.867Z,75.0380
2023-04-02T01:03:56.808Z,75.8214
2023-04-02T01:05:04.924Z,76.0806
2023-04-02T01:06:13.036Z,75.6002
2023-04-02T01:07:20.997Z,75.2262
2023-04-02T01:08:29.051Z,75.7578
2023-04-02T01:09:37.171Z,75.5815
2023-04-02T01:10:45.111Z,75.4421
2023-04-02T01:11:53.209Z,75.7580
2023-04-02T01:13:01.239Z,75.0104
2023-04-02T01:14:09.328Z,75.6930
2023-04-02T01:15:17.460Z,75.2535
2023-04-02T01:16:25.875Z,75.7102
2023-04-02T01:17:33.699Z,76.2152
2023-04-02T01:18:41.668Z,75.9023
2023-04-02T01:19:49.710Z,76.0472
2023-04-02T01:20:57.795Z,76.1098
2023-04-02T01:22:05.877Z,75.8578
2023-04-02T01:23:13.974Z,74.9202
2023-04-02T01:24:21.952Z,74.6966
2023-04-02T01:25:29.962Z,75.2459
2023-04-02T01:26:38.013Z,74.9317
2023-04-02T01:27:46.134Z,75.2138
2023-04-02T01:28:54.146Z,76.0476
2023-04-02T01:30:02.401Z,75.2316
2023-04-02T01:31:10.489Z,75.2671
2023-04-02T01:32:18.448Z,75.4267
2023-04-02T01:33:26.556Z,75.5821
2023-04-02T01:34:34.680Z,75.6402
2023-04-02T01:35:42.753Z,75.5259
2023-04-02T01:36:50.709Z,75.7070
2023-04-02T01:37:58.840Z,75.7815
2023-04-02T01:39:06.875Z,75.4359
2023-04-02T01:40:14.849Z,75.5143
2023-04-02T01:41:22.868Z,75.2409
2023-04-02T01:42:30.949Z,75.0535
2023-04-02T01:43:38.990Z,75.2803
2023-04-02T01:44:47.218Z,75.0155
2023-04-02T01:45:55.265Z,75.1286
2023-04-02T01:47:03.309Z,75.3669
2023-04-02T01:48:11.358Z,74.9910
2023-04-02T01:49:19.503Z,74.5070
2023-04-02T01:50:27.588Z,74.1757
2023-04-02T01:51:35.633Z,73.9026
2023-04-02T01:52:43.596Z,74.1851
2023-04-02T01:53:51.719Z,75.0190
2023-04-02T01:54:59.674Z,74.6576
2023-04-02T01:56:07.790Z,74.6503
2023-04-02T01:57:15.833Z,74.3404
2023-04-02T01:58:23.897Z,74.8528
2023-04-02T01:59:32.001Z,74.2856
2023-04-02T02:00:40.180Z,74.7023
2023-04-02T02:01:48.209Z,74.4340
2023-04-02T02:02:56.324Z,74.2866
2023-04-02T02:04:04.276Z,74.2451
2023-04-02T02:05:12.380Z,74.0248
2023-04-02T02:06:20.390Z,73.6110
2023-04-02T02:07:28.539Z,74.5230
2023-04-02T02:08:36.613Z,74.3180
2023-04-02T02:09:44.678Z,74.0248
2023-04-02T02:10:52.687Z,73.5609
2023-04-02T02:12:00.735Z,73.6821
2023-04-02T02:13:08.870Z,73.5240
2023-04-02T02:14:16.819Z,73.2876
2023-04-02T02:15:24.800Z,73.4480
2023-04-02T02:16:32.969Z,73.8296
2023-04-02T02:17:41.036Z,74.5208
2023-04-02T02:18:49.187Z,74.4144
2023-04-02T02:19:57.204Z,73.9221
2023-04-02T02:21:05.241Z,73.6594
2023-04-02T02:22:13.293Z,73.5893
2023-04-02T02:23:21.362Z,73.4429
2023-04-02T02:24:29.496Z,73.4818
2023-04-02T02:25:37.875Z,73.8379
2023-04-02T02:26:45.557Z,74.4435
2023-04-02T02:27:53.643Z,74.3456
2023-04-02T02:29:01.629Z,74.3761
2023-04-02T02:30:09.723Z,73.6239
2023-04-02T02:31:17.907Z,73.4105
2023-04-02T02:32:25.902Z,73.6515
2023-04-02T02:33:33.947Z,73.9513
2023-04-02T02:34:41.998Z,73.8664
2023-04-02T02:35:50.187Z,74.2459
2023-04-02T02:36:58.208Z,73.8857
2023-04-02T02:38:06.220Z,73.6490
2023-04-02T02:39:14.254Z,72.9714
2023-04-02T02:40:22.334Z,73.1562
2023-04-02T02:41:30.444Z,73.5902
2023-04-02T02:42:38.556Z,73.9566
2023-04-02T02:43:46.429Z,74.1638
2023-04-02T02:44:54.504Z,74.2472
2023-04-02T02:46:02.604Z,74.4749
2023-04-02T02:47:10.676Z,74.6603
2023-04-02T02:48:18.846Z,74.2854
2023-04-02T02:49:26.836Z,73.3621
2023-04-02T02:50:34.908Z,74.2136
2023-04-02T02:51:42.973Z,74.7186
2023-04-02T02:52:51.070Z,75.0601
2023-04-02T02:53:59.155Z,74.3990
2023-04-02T02:55:07.228Z,74.5015
2023-04-02T02:56:15.210Z,74.1899
2023-04-02T02:57:23.401Z,74.0194
2023-04-02T02:58:31.317Z,74.0773
2023-04-02T02:59:39.383Z,74.1590
2023-04-02T03:00:47.468Z,74.5096
2023-04-02T03:01:55.492Z,73.7119
2023-04-02T03:03:03.764Z,73.7165
2023-04-02T03:04:11.757Z,73.4492
2023-04-02T03:05:19.833Z,72.9845
2023-04-02T03:06:27.891Z,73.3718
2023-04-02T03:07:35.904Z,73.3190
2023-04-02T03:08:44.003Z,73.3559
2023-04-02T03:09:52.017Z,72.5961
2023-04-02T03:11:00.144Z,73.0081
2023-04-02T03:12:08.196Z,73.0105
2023-04-02T03:13:16.152Z,72.8957
2023-04-02T03:14:24.196Z,73.1826
2023-04-02T03:15:32.300Z,73.6377
2023-04-02T03:16:40.350Z,73.6560
2023-04-02T03:17:48.446Z,73.2830
2023-04-02T03:18:56.555Z,73.2788
2023-04-02T03:20:04.697Z,72.5419
2023-04-02T03:21:12.674Z,72.5919
2023-04-02T03:22:20.809Z,72.9447
2023-04-02T03:23:28.860Z,73.2008
2023-04-02T03:24:36.917Z,73.3196
2023-04-02T03:25:44.968Z,73.0676
2023-04-02T03:26:53.036Z,73.3434
2023-04-02T03:28:01.198Z,73.6965
2023-04-02T03:29:09.182Z,73.6541
2023-04-02T03:30:17.155Z,73.9056
2023-04-02T03:31:25.278Z,73.7659
2023-04-02T03:32:33.379Z,73.6951
2023-04-02T03:33:41.509Z,73.7415
2023-04-02T03:34:49.592Z,73.8385
2023-04-02T03:35:57.630Z,73.7023
2023-04-02T03:37:05.739Z,73.5161
2023-04-02T03:38:13.715Z,73.5212
2023-04-02T03:39:21.869Z,73.4349
2023-04-02T03:40:29.922Z,73.8677
2023-04-02T03:41:37.934Z,73.8020
2023-04-02T03:42:46.112Z,73.7536
2023-04-02T03:43:53.991Z,73.5745
2023-04-02T03:45:02.078Z,73.6411
2023-04-02T03:46:10.163Z,73.0379
2023-04-02T03:47:18.202Z,73.3452
2023-04-02T03:48:26.404Z,73.1065
2023-04-02T03:49:34.476Z,73.4116
2023-04-02T03:50:42.500Z,72.8969
2023-04-02T03:51:50.529Z,72.6999
2023-04-02T03:52:58.697Z,73.3129
2023-04-02T03:54:06.619Z,73.3841
2023-04-02T03:55:14.730Z,73.2665
2023-04-02T03:56:22.770Z,72.8903
2023-04-02T03:57:31.018Z,72.9727
2023-04-02T03:58:38.826Z,72.9655
2023-04-02T03:59:47.347Z,73.2545
2023-04-02T04:00:54.964Z,72.8418
2023-04-02T04:02:03.004Z,73.3680
2023-04-02T04:03:11.327Z,73.5900
2023-04-02T04:04:19.317Z,73.2494
2023-04-02T04:05:27.214Z,73.5093
2023-04-02T04:06:35.313Z,73.4264
2023-04-02T04:07:43.476Z,73.2630
2023-04-02T04:08:51.514Z,73.0254
2023-04-02T04:09:59.593Z,73.1369
2023-04-02T04:11:07.612Z,72.6492
2023-04-02T04:12:15.715Z,72.2628
2023-04-02T04:13:23.717Z,72.1662
2023-04-02T04:14:31.867Z,72.3999
2023-04-02T04:15:39.918Z,72.2856
2023-04-02T04:16:47.969Z,72.3571
2023-04-02T04:17:55.941Z,72.4897
2023-04-02T04:19:03.980Z,72.4257
2023-04-02T04:20:12.074Z,72.1928
2023-04-02T04:21:20.140Z,72.5687
2023-04-02T04:22:28.213Z,72.7591
2023-04-02T04:23:36.270Z,72.2796
2023-04-02T04:24:44.373Z,71.4990
2023-04-02T04:25:52.473Z,71.3904
2023-04-02T04:27:00.549Z,71.3387
2023-04-02T04:28:08.633Z,71.3490
2023-04-02T04:29:16.600Z,71.6123
2023-04-02T04:30:24.670Z,71.8243
2023-04-02T04:31:32.809Z,71.3656
2023-04-02T04:32:40.821Z,71.0241
2023-04-02T04:33:48.776Z,71.2527
2023-04-02T04:34:56.874Z,71.4904
2023-04-02T04:36:04.925Z,71.6124
2023-04-02T04:37:13.116Z,71.4164
2023-04-02T04:38:21.190Z,71.1583
2023-04-02T04:39:29.272Z,71.3144
2023-04-02T04:40:37.234Z,71.7738
2023-04-02T04:41:45.308Z,71.3076
2023-04-02T04:42:53.448Z,71.2589
2023-04-02T04:44:01.474Z,71.1397
2023-04-02T04:45:09.509Z,70.9410
2023-04-02T04:46:17.606Z,70.9869
2023-04-02T04:47:25.545Z,71.0607
2023-04-02T04:48:35.221Z,70.9170
2023-04-02T04:49:46.576Z,70.5872
2023-04-02T04:50:54.694Z,70.8284
2023-04-02T04:52:02.748Z,70.0922
2023-04-02T04:53:10.817Z,70.3388
2023-04-02T04:54:18.897Z,70.9547
2023-04-02T04:55:27.046Z,71.1544
2023-04-02T04:56:34.995Z,70.7500
2023-04-02T04:57:43.061Z,70.8907
2023-04-02T04:58:51.100Z,70.9656
2023-04-02T04:59:59.256Z,71.1481
2023-04-02T05:01:07.247Z,71.2638
2023-04-02T05:02:15.275Z,70.3999
2023-04-02T05:03:23.266Z,70.7249
2023-04-02T05:04:31.425Z,70.7323
2023-04-02T05:05:39.588Z,70.4412
2023-04-02T05:06:47.652Z,70.9064
2023-04-02T05:07:57.006Z,70.9130
2023-04-02T05:09:08.633Z,70.8688
2023-04-02T05:10:16.676Z,70.5565
2023-04-02T05:11:24.772Z,70.7990
2023-04-02T05:12:32.794Z,70.8096
2023-04-02T05:13:40.826Z,70.4874
2023-04-02T05:14:48.777Z,70.3448
2023-04-02T05:15:56.959Z,70.4863
2023-04-02T05:17:04.922Z,70.1730
2023-04-02T05:18:13.068Z,70.5053
2023-04-02T05:19:21.133Z,70.9012
2023-04-02T05:20:29.229Z,70.6114
2023-04-02T05:21:37.263Z,71.0913
2023-04-02T05:22:45.444Z,71.3609
2023-04-02T05:23:53.432Z,70.9928
2023-04-02T05:25:01.513Z,71.1639
2023-04-02T05:26:09.523Z,70.1979
2023-04-02T05:27:17.652Z,70.1740
2023-04-02T05:28:25.701Z,70.6129
2023-04-02T05:29:33.686Z,70.5290
2023-04-02T05:30:41.712Z,71.3045
2023-04-02T05:31:49.814Z,70.9222
2023-04-02T05:32:57.859Z,71.1258
2023-04-02T05:34:06.075Z,71.1830
2023-04-02T05:35:14.107Z,71.1457
2023-04-02T05:36:22.161Z,71.0806
2023-04-02T05:37:30.174Z,71.2588
2023-04-02T05:38:38.261Z,71.3901
2023-04-02T05:39:46.352Z,70.8728
2023-04-02T05:40:54.436Z,70.8597
2023-04-02T05:42:02.505Z,70.0743
2023-04-02T05:43:10.553Z,70.4413
2023-04-02T05:44:18.519Z,70.4518
2023-04-02T05:45:26.613Z,70.1235
2023-04-02T05:46:34.725Z,69.7531
2023-04-02T05:47:42.742Z,70.2203
2023-04-02T05:48:50.916Z,70.4567
2023-04-02T05:49:58.937Z,70.2026
2023-04-02T05:51:07.040Z,69.4816
2023-04-02T05:52:15.116Z,69.9726
2023-04-02T05:53:23.117Z,69.1986
2023-04-02T05:54:31.201Z,69.0114
2023-04-02T05:55:39.232Z,69.1461
2023-04-02T05:56:47.419Z,69.3394
2023-04-02T05:58:10.446Z,69.1114
2023-04-02T05:59:08.214Z,69.7132
2023-04-02T06:00:16.265Z,69.3677
2023-04-02T06:01:24.357Z,69.4915
2023-04-02T06:02:32.543Z,69.9270
2023-04-02T06:03:40.725Z,70.2085
2023-04-02T06:04:48.659Z,69.8760
2023-04-02T06:05:56.725Z,69.3314
2023-04-02T06:07:04.815Z,69.4334
2023-04-02T06:08:12.908Z,69.5806
2023-04-02T06:09:20.970Z,69.1931
2023-04-02T06:10:29.058Z,68.6114
2023-04-02T06:11:37.042Z,68.1437
2023-04-02T06:12:45.159Z,68.0816
2023-04-02T06:13:53.115Z,68.4209
2023-04-02T06:15:01.240Z,68.7664
2023-04-02T06:16:09.236Z,69.3583
2023-04-02T06:17:17.310Z,69.5916
2023-04-02T06:18:25.405Z,68.7306
2023-04-02T06:19:33.543Z,67.8984
2023-04-02T06:20:41.594Z,68.2127
2023-04-02T06:21:49.594Z,68.6826
2023-04-02T06:22:57.754Z,68.8550
2023-04-02T06:24:05.761Z,68.6137
2023-04-02T06:25:13.874Z,68.3769
2023-04-02T06:26:21.953Z,67.7577
2023-04-02T06:27:29.979Z,67.6846
2023-04-02T06:28:37.930Z,68.0022
2023-04-02T06:29:46.002Z,67.6182
2023-04-02T06:30:54.098Z,68.0550
2023-04-02T06:32:02.182Z,67.8032
2023-04-02T06:33:10.239Z,67.8776
2023-04-02T06:34:18.332Z,67.3799
2023-04-02T06:35:26.433Z,67.6923
2023-04-02T06:36:34.596Z,66.7311
2023-04-02T06:37:42.564Z,66.7705
2023-04-02T06:38:50.563Z,67.3913
2023-04-02T06:39:58.657Z,66.8842
2023-04-02T06:41:06.718Z,66.9888
2023-04-02T06:42:14.849Z,67.1699
2023-04-02T06:43:22.841Z,66.7410
2023-04-02T06:44:30.825Z,66.9675
2023-04-02T06:45:38.869Z,67.4870
2023-04-02T06:46:46.967Z,67.3631
2023-04-02T06:47:55.163Z,67.3620
2023-04-02T06:49:03.212Z,67.4735
2023-04-02T06:50:11.256Z,67.3030
2023-04-02T06:51:19.413Z,67.6521
2023-04-02T06:52:27.447Z,67.6520
2023-04-02T06:53:35.501Z,66.7386
2023-04-02T06:54:43.659Z,66.9887
2023-04-02T06:55:51.514Z,66.9407
2023-04-02T06:56:59.644Z,67.4870
2023-04-02T06:58:07.559Z,67.5553
2023-04-02T06:59:15.697Z,67.5712
2023-04-02T07:00:23.757Z,67.0434
2023-04-02T07:01:31.852Z,67.5850
2023-04-02T07:02:39.923Z,66.6962
2023-04-02T07:03:47.929Z,66.4427
2023-04-02T07:04:56.173Z,66.6410
2023-04-02T07:06:04.247Z,66.4850
2023-04-02T07:07:12.192Z,67.0596
2023-04-02T07:08:20.281Z,66.6748
2023-04-02T07:09:28.371Z,67.1945
2023-04-02T07:10:36.443Z,67.2218
2023-04-02T07:11:44.539Z,66.1413
2023-04-02T07:12:52.553Z,66.1172
2023-04-02T07:14:00.660Z,67.0502
2023-04-02T07:15:08.577Z,66.9785
2023-04-02T07:16:16.777Z,66.9917
2023-04-02T07:17:24.775Z,67.7497
2023-04-02T07:18:32.809Z,67.1090
2023-04-02T07:19:40.937Z,66.1837
2023-04-02T07:20:49.007Z,65.6051
2023-04-02T07:21:57.069Z,65.7294
2023-04-02T07:23:05.227Z,66.2350
2023-04-02T07:24:13.276Z,65.5181
2023-04-02T07:25:21.436Z,65.9114
2023-04-02T07:26:29.367Z,65.9787
2023-04-02T07:27:37.522Z,66.0209
2023-04-02T07:28:45.521Z,65.8275
2023-04-02T07:29:53.489Z,64.5564
2023-04-02T07:31:01.496Z,65.3547
2023-04-02T07:32:09.613Z,64.7618
2023-04-02T07:33:17.671Z,64.6209
2023-04-02T07:34:25.815Z,64.4052
2023-04-02T07:35:34.307Z,63.8331
2023-04-02T07:36:41.990Z,64.4466
2023-04-02T07:37:50.057Z,64.6917
2023-04-02T07:38:58.157Z,64.8321
2023-04-02T07:40:06.203Z,63.6306
2023-04-02T07:41:14.273Z,64.4634
2023-04-02T07:42:22.313Z,63.5604
2023-04-02T07:43:30.503Z,63.6483
2023-04-02T07:44:38.519Z,64.1513
2023-04-02T07:45:46.600Z,63.6103
2023-04-02T07:46:54.510Z,64.1014
2023-04-02T07:48:02.602Z,63.4187
2023-04-02T07:49:10.600Z,63.0255
2023-04-02T07:50:18.752Z,62.9204
2023-04-02T07:51:26.858Z,63.0119
2023-04-02T07:52:34.924Z,63.2041
2023-04-02T07:53:42.958Z,62.8262
2023-04-02T07:54:51.115Z,63.8202
2023-04-02T07:55:59.151Z,62.9330
2023-04-02T07:57:07.301Z,63.5137
2023-04-02T07:58:15.220Z,62.6806
2023-04-02T07:59:23.313Z,62.1608
2023-04-02T08:00:31.385Z,62.0357
2023-04-02T08:01:39.406Z,61.0434
2023-04-02T08:02:47.450Z,61.3757
2023-04-02T08:03:55.522Z,62.6604
2023-04-02T08:05:03.531Z,62.3839
2023-04-02T08:06:11.720Z,62.0588
2023-04-02T08:07:19.796Z,61.5485
2023-04-02T08:08:27.926Z,62.1141
2023-04-02T08:09:35.908Z,62.3170
2023-04-02T08:10:43.956Z,61.5953
2023-04-02T08:11:52.040Z,61.5491
2023-04-02T08:13:00.237Z,62.1621
2023-04-02T08:14:08.173Z,61.4547
2023-04-02T08:15:16.222Z,62.3834
2023-04-02T08:16:24.264Z,62.5294
2023-04-02T08:17:32.355Z,62.7624
2023-04-02T08:18:40.373Z,62.6712
2023-04-02T08:19:54.786Z,63.3127
2023-04-02T08:21:01.387Z,63.4441
2023-04-02T08:22:09.477Z,62.3489
2023-04-02T08:23:17.554Z,61.9840
2023-04-02T08:24:25.645Z,62.8697
2023-04-02T08:25:33.920Z,62.6401
2023-04-02T08:26:43.033Z,62.5492
2023-04-02T08:27:54.649Z,63.7111
2023-04-02T08:29:02.763Z,62.7218
2023-04-02T08:30:10.695Z,63.7850
2023-04-02T08:31:18.877Z,63.9623
2023-04-02T08:32:26.851Z,64.0615
2023-04-02T08:33:35.038Z,64.0835
2023-04-02T08:34:43.106Z,64.3244
2023-04-02T08:35:51.236Z,64.4931
2023-04-02T08:36:59.283Z,64.8205
2023-04-02T08:38:07.239Z,65.7088
2023-04-02T08:39:15.304Z,64.6378
2023-04-02T08:40:23.402Z,64.6853
2023-04-02T08:41:31.481Z,64.3803
2023-04-02T08:42:39.510Z,62.9476
2023-04-02T08:43:47.493Z,63.4942
2023-04-02T08:44:55.500Z,63.2328
2023-04-02T08:46:03.582Z,63.9439
2023-04-02T08:47:11.666Z,64.4648
2023-04-02T08:48:19.748Z,63.9370
2023-04-02T08:49:27.793Z,63.8524
2023-04-02T08:50:35.857Z,63.7017
2023-04-02T08:51:44.008Z,62.8394
2023-04-02T08:52:52.079Z,63.5029
2023-04-02T08:54:00.163Z,63.2508
2023-04-02T08:55:08.279Z,62.5085
2023-04-02T08:56:16.218Z,61.7863
2023-04-02T08:57:24.347Z,61.6130
2023-04-02T08:58:32.360Z,61.6115
2023-04-02T08:59:40.529Z,61.4816
2023-04-02T09:00:48.593Z,60.8047
2023-04-02T09:01:56.508Z,60.4534
2023-04-02T09:03:04.542Z,60.3020
2023-04-02T09:04:12.688Z,60.6946
2023-04-02T09:05:20.681Z,60.6706
2023-04-02T09:06:28.876Z,60.6585
2023-04-02T09:07:36.836Z,60.3815
2023-04-02T09:08:44.944Z,60.1747
2023-04-02T09:09:52.970Z,60.9183
2023-04-02T09:11:01.097Z,60.3302
2023-04-02T09:12:09.198Z,60.4665
2023-04-02T09:13:17.177Z,61.0338
2023-04-02T09:14:25.252Z,60.8172
2023-04-02T09:15:33.584Z,61.5618
2023-04-02T09:16:41.288Z,62.2798
2023-04-02T09:17:54.025Z,63.0498
2023-04-02T09:19:02.237Z,63.1347
2023-04-02T09:20:10.474Z,62.8320
2023-04-02T09:21:18.474Z,62.3187
2023-04-02T09:22:26.595Z,62.7591
2023-04-02T09:23:34.679Z,61.1080
2023-04-02T09:24:42.688Z,60.8486
2023-04-02T09:26:03.025Z,59.8875
2023-04-02T09:27:03.690Z,60.8570
2023-04-02T09:28:11.800Z,61.4320
2023-04-02T09:29:19.701Z,61.2485
2023-04-02T09:30:27.744Z,59.3650
2023-04-02T09:31:35.861Z,58.6406
2023-04-02T09:32:43.894Z,58.9137
2023-04-02T09:33:52.087Z,59.4380
2023-04-02T09:35:00.161Z,59.2175
2023-04-02T09:36:08.225Z,60.1263
2023-04-02T09:37:16.204Z,58.8763
2023-04-02T09:38:24.358Z,58.7358
2023-04-02T09:39:32.444Z,60.3171
2023-04-02T09:40:40.480Z,59.4128
2023-04-02T09:42:02.405Z,58.6063
2023-04-02T09:43:01.361Z,60.5828
2023-04-02T09:44:09.417Z,61.7105
2023-04-02T09:45:17.505Z,60.6598
2023-04-02T09:46:25.547Z,59.3350
2023-04-02T09:47:33.766Z,59.7461
2023-04-02T09:48:41.725Z,59.8638
2023-04-02T09:49:49.806Z,60.1962
2023-04-02T09:50:57.943Z,59.7418
2023-04-02T09:52:05.969Z,59.2119
2023-04-02T09:53:14.019Z,59.1719
2023-04-02T09:54:22.106Z,58.9843
2023-04-02T09:55:30.100Z,57.1266
2023-04-02T09:56:38.249Z,58.4634
2023-04-02T09:57:46.138Z,57.7285
2023-04-02T09:58:54.217Z,58.2146
2023-04-02T10:00:02.278Z,58.3416
2023-04-02T10:01:10.373Z,58.3808
2023-04-02T10:02:18.530Z,59.0696
2023-04-02T10:03:26.654Z,58.8471
2023-04-02T10:04:34.613Z,56.9249
2023-04-02T10:05:43.085Z,57.6461
2023-04-02T10:06:50.714Z,57.6174
2023-04-02T10:07:58.840Z,56.6970
2023-04-02T10:09:06.977Z,57.1285
2023-04-02T10:10:14.914Z,57.0446
2023-04-02T10:11:23.448Z,57.6237
2023-04-02T10:12:35.874Z,57.3483
2023-04-02T10:13:43.901Z,57.5540
2023-04-02T10:14:52.006Z,57.3235
2023-04-02T10:16:00.053Z,57.7393
2023-04-02T10:17:08.265Z,57.6315
2023-04-02T10:18:16.231Z,57.2231
2023-04-02T10:19:24.381Z,58.7559
2023-04-02T10:20:36.345Z,58.1190
2023-04-02T10:21:45.318Z,57.1785
2023-04-02T10:22:53.329Z,56.4820
2023-04-02T10:24:01.390Z,58.1823
2023-04-02T10:25:09.484Z,57.8953
2023-04-02T10:26:17.495Z,56.9181
2023-04-02T10:27:25.490Z,58.0915
2023-04-02T10:28:33.569Z,59.5091
2023-04-02T10:29:41.648Z,57.6997
2023-04-02T10:30:49.850Z,58.8386
2023-04-02T10:31:57.927Z,56.5213
2023-04-02T10:33:06.010Z,58.5352
2023-04-02T10:34:13.962Z,59.1625
2023-04-02T10:35:22.063Z,59.2082
2023-04-02T10:36:30.118Z,59.0238
2023-04-02T10:37:38.206Z,58.5144
2023-04-02T10:38:46.178Z,57.0453
2023-04-02T10:39:54.293Z,56.8694
2023-04-02T10:41:02.314Z,58.0726
2023-04-02T10:42:10.481Z,57.5874
2023-04-02T10:43:18.517Z,58.5991
2023-04-02T10:44:26.520Z,58.9922
2023-04-02T10:45:34.752Z,57.6503
2023-04-02T10:46:42.682Z,57.5086
2023-04-02T10:47:50.803Z,57.4717
2023-04-02T10:48:58.828Z,56.9973
2023-04-02T10:50:06.846Z,56.2481
2023-04-02T10:51:14.829Z,57.3502
2023-04-02T10:52:22.856Z,57.5182
2023-04-02T10:53:30.987Z,57.3681
2023-04-02T10:54:39.046Z,56.5778
2023-04-02T10:55:47.199Z,57.5622
2023-04-02T10:56:55.244Z,57.9965
2023-04-02T10:58:03.324Z,56.6912
2023-04-02T10:59:11.402Z,54.2581
2023-04-02T11:00:19.509Z,54.4440
2023-04-02T11:01:27.565Z,54.3480
2023-04-02T11:02:35.621Z,55.6501
2023-04-02T11:03:43.791Z,56.1535
2023-04-02T11:04:51.649Z,55.9948
2023-04-02T11:05:59.678Z,56.3885
2023-04-02T11:07:14.418Z,54.9156
2023-04-02T11:08:20.710Z,55.6945
2023-04-02T11:09:28.806Z,55.5069
2023-04-02T11:10:36.918Z,55.5148
2023-04-02T11:11:45.071Z,56.0570
2023-04-02T11:12:53.004Z,56.1683
2023-04-02T11:14:01.076Z,57.3410
2023-04-02T11:15:09.155Z,57.0553
2023-04-02T11:16:17.305Z,57.7398
2023-04-02T11:17:25.333Z,56.0560
2023-04-02T11:18:33.275Z,56.2588
2023-04-02T11:19:41.308Z,57.7817
2023-04-02T11:20:49.346Z,56.3516
2023-04-02T11:21:59.354Z,55.9353
2023-04-02T11:23:10.560Z,54.3232
2023-04-02T11:24:18.478Z,54.9049
2023-04-02T11:25:26.609Z,56.0995
2023-04-02T11:26:34.596Z,55.3136
2023-04-02T11:27:42.737Z,55.7861
2023-04-02T11:28:50.813Z,55.1119
2023-04-02T11:29:58.874Z,54.2211
2023-04-02T11:31:06.898Z,54.1462
2023-04-02T11:32:14.866Z,54.0347
2023-04-02T11:33:34.138Z,54.9549
2023-04-02T11:34:35.894Z,55.6651
2023-04-02T11:35:44.029Z,53.5959
2023-04-02T11:36:52.122Z,54.5921
2023-04-02T11:38:00.171Z,54.5664
2023-04-02T11:39:17.079Z,53.6497
2023-04-02T11:40:21.161Z,53.9451
2023-04-02T11:41:29.232Z,52.6630
2023-04-02T11:42:37.290Z,51.0935
2023-04-02T11:43:45.329Z,52.0219
2023-04-02T11:44:53.304Z,53.6285
2023-04-02T11:46:01.476Z,53.0054
2023-04-02T11:47:09.490Z,54.6516
2023-04-02T11:48:17.566Z,55.4130
2023-04-02T11:49:25.693Z,56.4567
2023-04-02T11:50:33.856Z,57.5126
2023-04-02T11:51:41.862Z,57.5992
2023-04-02T11:52:49.921Z,57.2881
2023-04-02T11:53:58.001Z,57.0344
2023-04-02T11:55:06.047Z,56.9224
2023-04-02T11:56:14.220Z,56.5348
2023-04-02T11:57:22.276Z,57.1879
2023-04-02T11:58:30.242Z,57.8126
2023-04-02T11:59:38.183Z,57.8536
2023-04-02T12:00:46.300Z,58.6660
2023-04-02T12:01:54.343Z,58.8445
2023-04-02T12:03:02.447Z,58.4518
2023-04-02T12:04:10.604Z,60.0208
2023-04-02T12:05:18.669Z,59.5474
2023-04-02T12:06:26.653Z,58.7657
2023-04-02T12:07:34.886Z,59.4366
2023-04-02T12:08:56.677Z,57.6508
2023-04-02T12:09:55.745Z,57.0012
2023-04-02T12:11:03.842Z,58.6338
2023-04-02T12:12:11.881Z,58.8995
2023-04-02T12:13:19.937Z,57.8956
2023-04-02T12:14:27.926Z,57.0284
2023-04-02T12:15:36.103Z,57.8323
2023-04-02T12:16:44.153Z,57.8775
2023-04-02T12:17:52.231Z,59.5077
2023-04-02T12:19:00.362Z,61.0013
2023-04-02T12:20:08.404Z,58.7654
2023-04-02T12:21:16.393Z,59.2087
2023-04-02T12:22:24.491Z,58.9569
2023-04-02T12:23:32.524Z,58.8860
2023-04-02T12:24:40.657Z,60.2947
2023-04-02T12:25:48.734Z,58.3404
2023-04-02T12:26:56.771Z,59.1139
2023-04-02T12:28:04.719Z,59.5238
2023-04-02T12:29:12.798Z,58.4558
2023-04-02T12:30:20.866Z,58.4265
2023-04-02T12:31:29.016Z,58.8409
2023-04-02T12:32:37.122Z,59.2408
2023-04-02T12:33:45.100Z,58.9213
2023-04-02T12:34:53.161Z,58.1757
2023-04-02T12:36:01.377Z,58.4558
2023-04-02T12:37:09.320Z,58.6066
2023-04-02T12:38:17.396Z,58.8984
2023-04-02T12:39:27.967Z,58.1055
2023-04-02T12:40:38.580Z,58.0081
2023-04-02T12:41:46.303Z,57.5449
2023-04-02T12:42:54.403Z,57.1437
2023-04-02T12:44:02.544Z,57.5440
2023-04-02T12:45:10.546Z,58.0254
2023-04-02T12:46:18.691Z,57.4175
2023-04-02T12:47:26.730Z,56.8583
2023-04-02T12:48:34.888Z,58.2817
2023-04-02T12:49:42.907Z,58.0156
2023-04-02T12:50:50.974Z,58.1409
2023-04-02T12:51:59.066Z,58.6501
2023-04-02T12:53:07.071Z,58.0308
2023-04-02T12:54:15.196Z,57.0260
2023-04-02T12:55:23.296Z,57.6847
2023-04-02T12:56:31.174Z,57.4462
2023-04-02T12:57:39.468Z,56.2016
2023-04-02T12:58:47.327Z,55.8576
2023-04-02T12:59:55.430Z,56.4533
2023-04-02T13:01:03.596Z,56.9036
2023-04-02T13:02:11.604Z,56.4197
2023-04-02T13:03:19.803Z,56.3037
2023-04-02T13:04:27.727Z,55.7692
2023-04-02T13:05:35.848Z,56.9196
2023-04-02T13:06:43.928Z,56.9394
2023-04-02T13:07:51.915Z,56.5381
2023-04-02T13:08:59.969Z,55.8719
2023-04-02T13:10:08.048Z,55.4009
2023-04-02T13:11:16.053Z,54.8906
2023-04-02T13:12:24.151Z,55.3285
2023-04-02T13:13:32.154Z,55.7327
2023-04-02T13:14:40.203Z,55.2491
2023-04-02T13:15:48.448Z,55.8380
2023-04-02T13:16:56.519Z,54.6825
2023-04-02T13:18:04.617Z,55.4190
2023-04-02T13:19:12.604Z,54.7165
2023-04-02T13:20:20.630Z,54.4470
2023-04-02T13:21:28.956Z,54.4605
2023-04-02T13:22:36.873Z,54.9996
2023-04-02T13:23:44.931Z,55.2547
2023-04-02T13:24:52.876Z,54.8647
2023-04-02T13:26:00.877Z,55.2435
2023-04-02T13:27:08.921Z,55.7690
2023-04-02T13:28:17.034Z,55.5402
2023-04-02T13:29:25.118Z,56.1555
2023-04-02T13:30:33.357Z,54.7799
2023-04-02T13:31:41.279Z,54.5629
2023-04-02T13:32:49.369Z,54.7763
2023-04-02T13:33:57.488Z,55.0354
2023-04-02T13:35:05.562Z,54.7643
2023-04-02T13:36:13.574Z,54.8684
2023-04-02T13:37:21.669Z,54.7270
2023-04-02T13:38:29.658Z,54.9744
2023-04-02T13:39:37.792Z,54.4201
2023-04-02T13:40:45.701Z,54.4599
2023-04-02T13:41:53.736Z,54.1771
2023-04-02T13:43:01.808Z,54.3216
2023-04-02T13:44:09.995Z,53.2350